Time;durP1;ratioP1;P1;durP2;ratioP2;P2;SDS_P1;SDS_P2;PMS_P1;PMS_P2;Temp;Humidity;BMP_temperature;BMP_pressure;BME280_temperature;BME280_humidity;BME280_pressure;Samples;Min_cycle;Max_cycle;Signal;HPM_P1;HPM_P2
2023/07/09 00:00:17;;;;;;;5.80;5.20;;;25.70;49.40;;;;;;4992152;28;20424;-70
2023/07/09 00:02:43;;;;;;;6.83;5.77;;;25.70;49.30;;;;;;4993529;28;20422;-69
2023/07/09 00:05:12;;;;;;;7.20;6.50;;;25.70;49.30;;;;;;4995840;28;20442;-69
2023/07/09 00:07:38;;;;;;;7.17;6.47;;;25.70;49.30;;;;;;4995428;28;20251;-70
2023/07/09 00:10:14;;;;;;;6.10;5.50;;;25.70;49.30;;;;;;4995305;28;20874;-69
2023/07/09 00:12:40;;;;;;;7.03;5.90;;;25.70;49.30;;;;;;4995443;28;20396;-69
2023/07/09 00:15:09;;;;;;;7.07;6.17;;;25.70;49.80;;;;;;4995350;28;20483;-69
2023/07/09 00:17:35;;;;;;;6.13;5.63;;;25.70;49.30;;;;;;4995459;28;20197;-70
2023/07/09 00:20:04;;;;;;;6.50;5.90;;;25.70;49.30;;;;;;4995294;28;20443;-69
2023/07/09 00:22:30;;;;;;;6.10;5.50;;;25.70;49.30;;;;;;4995211;28;20569;-69
2023/07/09 00:24:56;;;;;;;7.00;6.30;;;25.70;49.30;;;;;;4995148;28;20413;-69
2023/07/09 00:27:26;;;;;;;8.30;7.50;;;25.70;49.30;;;;;;4995124;28;20197;-69
2023/07/09 00:29:54;;;;;;;7.00;6.10;;;25.70;49.30;;;;;;4995352;28;20975;-68
2023/07/09 00:32:21;;;;;;;7.43;6.70;;;25.70;49.30;;;;;;4995011;28;20499;-69
2023/07/09 00:34:51;;;;;;;8.27;7.03;;;25.70;49.30;;;;;;4995065;28;20459;-69
2023/07/09 00:37:21;;;;;;;6.80;6.17;;;25.70;49.30;;;;;;4994835;28;20432;-69
2023/07/09 00:39:48;;;;;;;7.07;6.33;;;25.70;49.30;;;;;;4995347;28;20407;-69
2023/07/09 00:42:19;;;;;;;8.27;6.90;;;25.70;49.30;;;;;;4995199;28;20427;-69
2023/07/09 00:44:51;;;;;;;6.73;6.10;;;25.70;49.30;;;;;;4994960;28;20385;-68
2023/07/09 00:47:28;;;;;;;6.83;6.23;;;25.70;49.30;;;;;;4994683;28;20464;-69
2023/07/09 00:50:09;;;;;;;7.00;6.30;;;25.70;49.30;;;;;;4994700;28;20478;-69
2023/07/09 00:52:53;;;;;;;6.80;6.20;;;25.70;49.30;;;;;;4994946;28;20412;-69
2023/07/09 00:55:24;;;;;;;6.70;6.10;;;25.70;49.30;;;;;;4994768;28;20405;-69
2023/07/09 00:57:56;;;;;;;6.73;6.03;;;25.70;49.30;;;;;;4994623;28;20511;-68
2023/07/09 01:00:27;;;;;;;7.67;6.97;;;25.70;49.30;;;;;;4994526;28;20468;-69
2023/07/09 01:02:53;;;;;;;8.67;6.93;;;25.70;49.40;;;;;;4993718;28;20411;-69
2023/07/09 01:05:19;;;;;;;6.83;6.13;;;25.70;49.30;;;;;;4994447;28;20412;-69
2023/07/09 01:07:48;;;;;;;7.50;6.70;;;25.70;49.30;;;;;;4994391;28;20440;-68
2023/07/09 01:10:16;;;;;;;10.47;6.70;;;25.70;49.30;;;;;;4994373;28;20834;-68
2023/07/09 01:12:43;;;;;;;7.73;7.03;;;25.70;49.30;;;;;;4994339;28;20482;-70
2023/07/09 01:15:11;;;;;;;7.80;7.10;;;25.70;49.40;;;;;;4994338;28;20471;-70
2023/07/09 01:17:36;;;;;;;8.70;6.23;;;25.70;49.30;;;;;;4994281;28;20436;-69
2023/07/09 01:20:03;;;;;;;7.60;6.63;;;25.70;49.30;;;;;;4994481;28;20413;-69
2023/07/09 01:22:29;;;;;;;6.70;6.10;;;25.70;49.30;;;;;;4994252;28;20212;-68
2023/07/09 01:25:06;;;;;;;7.20;6.50;;;25.70;49.30;;;;;;4994092;28;20796;-69
2023/07/09 01:27:42;;;;;;;7.60;6.90;;;25.70;49.30;;;;;;4993970;28;20485;-68
2023/07/09 01:30:14;;;;;;;8.70;6.93;;;25.70;49.30;;;;;;4994201;28;20538;-70
2023/07/09 01:32:45;;;;;;;6.47;5.87;;;25.70;49.30;;;;;;4994069;28;20451;-69
2023/07/09 01:35:11;;;;;;;7.13;6.50;;;25.70;49.30;;;;;;4993983;28;20389;-69
2023/07/09 01:37:37;;;;;;;8.40;7.60;;;25.70;49.30;;;;;;4994121;28;20810;-69
2023/07/09 01:40:05;;;;;;;7.07;6.37;;;25.70;49.30;;;;;;4994095;28;20424;-68
2023/07/09 01:42:31;;;;;;;7.67;6.47;;;25.70;49.30;;;;;;4993845;28;20407;-69
2023/07/09 01:44:57;;;;;;;7.57;6.37;;;25.70;49.30;;;;;;4992514;28;20961;-69
2023/07/09 01:47:23;;;;;;;8.03;7.23;;;25.70;49.30;;;;;;4993655;28;20439;-69
2023/07/09 01:49:56;;;;;;;6.67;5.97;;;25.70;49.30;;;;;;4993801;28;20499;-69
2023/07/09 01:52:24;;;;;;;6.87;6.17;;;25.70;49.30;;;;;;4993865;28;20165;-69
2023/07/09 01:54:50;;;;;;;7.20;6.50;;;25.70;49.30;;;;;;4993812;28;20752;-69
2023/07/09 01:57:25;;;;;;;7.87;7.17;;;25.70;49.30;;;;;;4993422;28;20439;-69
2023/07/09 01:59:54;;;;;;;6.73;6.13;;;25.70;49.30;;;;;;4993646;28;20184;-69
2023/07/09 02:02:20;;;;;;;6.33;5.73;;;25.70;49.30;;;;;;4993697;28;20428;-69
2023/07/09 02:04:51;;;;;;;6.80;6.20;;;25.70;49.30;;;;;;4993384;28;20515;-69
2023/07/09 02:07:19;;;;;;;8.03;7.23;;;25.70;49.30;;;;;;4993632;28;21009;-71
2023/07/09 02:09:45;;;;;;;7.93;7.23;;;25.70;49.40;;;;;;4993549;28;20755;-69
2023/07/09 02:12:12;;;;;;;7.63;6.70;;;25.70;49.40;;;;;;4993610;28;20416;-68
2023/07/09 02:14:39;;;;;;;7.80;6.83;;;25.70;49.40;;;;;;4993284;28;20408;-69
2023/07/09 02:17:05;;;;;;;7.40;6.63;;;25.70;49.40;;;;;;4993193;28;20860;-69
2023/07/09 02:19:31;;;;;;;7.03;6.33;;;25.70;50.00;;;;;;4992279;28;20532;-69
2023/07/09 02:21:57;;;;;;;7.40;6.70;;;25.70;49.40;;;;;;4993069;28;21095;-69
2023/07/09 02:24:27;;;;;;;7.17;6.13;;;25.70;49.40;;;;;;4992031;28;20224;-67
2023/07/09 02:26:54;;;;;;;6.60;6.00;;;25.70;49.40;;;;;;4991317;28;20968;-69
2023/07/09 02:29:19;;;;;;;6.97;6.27;;;25.70;49.40;;;;;;4993102;28;20419;-69
2023/07/09 02:31:45;;;;;;;6.97;6.27;;;25.70;49.40;;;;;;4993132;28;20469;-69
2023/07/09 02:34:11;;;;;;;6.63;6.03;;;25.70;49.40;;;;;;4992977;28;20182;-70
2023/07/09 02:36:37;;;;;;;6.70;6.10;;;25.70;49.40;;;;;;4992866;28;20408;-69
2023/07/09 02:39:03;;;;;;;7.47;6.77;;;25.70;49.40;;;;;;4992836;28;20161;-69
2023/07/09 02:41:28;;;;;;;7.17;6.50;;;25.70;49.40;;;;;;4992851;28;20192;-69
2023/07/09 02:43:54;;;;;;;6.50;5.90;;;25.70;49.40;;;;;;4991514;28;20416;-69
2023/07/09 02:46:20;;;;;;;6.30;5.70;;;25.70;49.50;;;;;;4991640;28;20185;-70
2023/07/09 02:48:45;;;;;;;9.90;7.20;;;25.70;49.40;;;;;;4992683;28;20193;-69
2023/07/09 02:51:11;;;;;;;6.87;5.83;;;25.70;49.40;;;;;;4992769;28;20201;-68
2023/07/09 02:53:36;;;;;;;8.10;6.90;;;25.70;49.40;;;;;;4992840;28;20184;-68
2023/07/09 02:56:02;;;;;;;7.90;7.00;;;25.70;49.40;;;;;;4992703;28;20208;-70
2023/07/09 02:58:27;;;;;;;6.67;6.07;;;25.70;49.40;;;;;;4992598;28;20541;-69
2023/07/09 03:00:53;;;;;;;6.30;5.70;;;25.70;49.40;;;;;;4992531;28;20189;-69
2023/07/09 03:03:20;;;;;;;8.73;7.23;;;25.70;49.40;;;;;;4992506;28;20180;-69
2023/07/09 03:05:46;;;;;;;7.03;6.43;;;25.70;49.40;;;;;;4992619;28;20554;-68
2023/07/09 03:08:12;;;;;;;7.20;6.50;;;25.70;49.40;;;;;;4992459;28;20491;-69
2023/07/09 03:10:38;;;;;;;6.93;6.33;;;25.70;49.40;;;;;;4991382;28;20872;-68
2023/07/09 03:13:03;;;;;;;7.37;6.53;;;25.70;49.40;;;;;;4992596;28;20165;-69
2023/07/09 03:15:30;;;;;;;6.90;6.20;;;25.60;49.30;;;;;;4992440;28;20169;-68
2023/07/09 03:17:56;;;;;;;7.10;6.40;;;25.70;49.40;;;;;;4992536;28;20673;-69
2023/07/09 03:20:21;;;;;;;5.90;5.40;;;25.60;49.30;;;;;;4992380;28;20408;-69
2023/07/09 03:22:47;;;;;;;6.23;5.67;;;25.70;49.40;;;;;;4992383;28;20227;-69
2023/07/09 03:25:13;;;;;;;6.90;6.30;;;25.60;49.30;;;;;;4992369;28;20577;-69
2023/07/09 03:27:38;;;;;;;7.00;6.40;;;25.60;49.30;;;;;;4992312;28;20284;-69
2023/07/09 03:30:04;;;;;;;7.00;6.40;;;25.60;49.30;;;;;;4992249;28;20220;-69
2023/07/09 03:32:30;;;;;;;6.27;5.67;;;25.60;49.30;;;;;;4992302;28;20669;-68
2023/07/09 03:34:56;;;;;;;7.27;6.53;;;25.60;49.30;;;;;;4992288;28;20437;-69
2023/07/09 03:37:21;;;;;;;6.63;5.87;;;25.60;49.30;;;;;;4992928;28;20566;-70
2023/07/09 03:39:47;;;;;;;9.20;6.10;;;25.60;49.30;;;;;;4996272;28;20169;-69
2023/07/09 03:42:12;;;;;;;6.50;5.90;;;25.60;49.30;;;;;;4996226;28;20600;-69
2023/07/09 03:44:38;;;;;;;6.83;6.17;;;25.60;49.30;;;;;;4995977;28;20635;-69
2023/07/09 03:47:04;;;;;;;8.60;6.17;;;25.60;49.30;;;;;;4995849;28;20375;-69
2023/07/09 03:49:29;;;;;;;6.30;5.70;;;25.60;49.30;;;;;;4995820;28;20169;-69
2023/07/09 03:51:55;;;;;;;7.47;6.77;;;25.60;49.80;;;;;;4995813;28;20208;-69
2023/07/09 03:54:21;;;;;;;7.17;6.43;;;25.60;49.20;;;;;;4996038;28;20661;-69
2023/07/09 03:56:46;;;;;;;7.27;6.60;;;25.60;49.20;;;;;;4995667;28;20203;-68
2023/07/09 03:59:12;;;;;;;7.73;7.03;;;25.60;49.20;;;;;;4995626;28;20701;-69
2023/07/09 04:01:37;;;;;;;9.17;6.43;;;25.60;49.20;;;;;;4995587;28;20207;-69
2023/07/09 04:04:03;;;;;;;7.50;6.80;;;25.60;49.20;;;;;;4995569;28;20177;-69
2023/07/09 04:06:29;;;;;;;6.90;6.20;;;25.60;49.20;;;;;;4995527;28;20180;-69
2023/07/09 04:08:54;;;;;;;7.97;7.27;;;25.60;49.10;;;;;;4995559;28;20177;-68
2023/07/09 04:11:20;;;;;;;8.13;7.27;;;25.60;49.10;;;;;;4995403;28;20654;-69
2023/07/09 04:13:45;;;;;;;7.23;6.53;;;25.60;49.10;;;;;;4995423;28;20290;-69
2023/07/09 04:16:11;;;;;;;7.60;6.53;;;25.60;49.10;;;;;;4995328;28;20180;-69
2023/07/09 04:18:37;;;;;;;6.93;6.23;;;25.60;49.10;;;;;;4995323;28;20587;-69
2023/07/09 04:21:03;;;;;;;9.00;8.10;;;25.60;49.10;;;;;;4995670;28;20423;-69
2023/07/09 04:23:29;;;;;;;6.70;6.10;;;25.60;49.10;;;;;;4995791;28;20205;-69
2023/07/09 04:25:54;;;;;;;7.17;6.47;;;25.60;49.10;;;;;;4995605;28;21011;-69
2023/07/09 04:28:20;;;;;;;8.20;6.97;;;25.60;49.10;;;;;;4995548;28;20200;-69
2023/07/09 04:30:51;;;;;;;6.73;6.13;;;25.70;49.10;;;;;;4995420;28;20201;-69
2023/07/09 04:33:18;;;;;;;7.53;6.83;;;25.60;49.10;;;;;;4996155;28;20442;-69
2023/07/09 04:35:45;;;;;;;6.67;6.07;;;25.70;49.10;;;;;;4995286;28;20412;-69
2023/07/09 04:38:12;;;;;;;7.17;6.40;;;25.70;49.10;;;;;;4995373;28;20436;-71
2023/07/09 04:40:37;;;;;;;7.47;6.80;;;25.60;49.00;;;;;;4995086;28;20424;-69
2023/07/09 04:43:03;;;;;;;6.83;6.23;;;25.70;49.10;;;;;;4994003;28;20935;-69
2023/07/09 04:45:28;;;;;;;9.33;6.73;;;25.70;49.10;;;;;;4995346;28;20181;-69
2023/07/09 04:47:54;;;;;;;7.20;6.50;;;25.70;49.10;;;;;;4993158;28;20201;-69
2023/07/09 04:50:19;;;;;;;6.70;6.10;;;25.70;49.10;;;;;;4993850;28;20420;-68
2023/07/09 04:52:45;;;;;;;6.90;6.20;;;25.70;49.10;;;;;;4995523;28;20177;-69
2023/07/09 04:55:11;;;;;;;6.87;6.27;;;25.70;49.10;;;;;;4993969;28;20534;-69
2023/07/09 04:57:36;;;;;;;6.80;6.20;;;25.70;49.10;;;;;;4995343;28;20224;-69
2023/07/09 05:00:05;;;;;;;6.90;6.30;;;25.70;49.10;;;;;;4993630;28;20555;-68
2023/07/09 05:02:31;;;;;;;6.90;6.17;;;25.70;49.10;;;;;;4995512;28;20169;-69
2023/07/09 05:04:56;;;;;;;7.63;6.77;;;25.70;49.10;;;;;;4995061;28;20410;-69
2023/07/09 05:07:22;;;;;;;7.00;6.07;;;25.70;49.10;;;;;;4993994;28;20436;-70
2023/07/09 05:09:48;;;;;;;7.17;6.20;;;25.70;49.10;;;;;;4994546;28;20177;-69
2023/07/09 05:12:13;;;;;;;6.83;6.23;;;25.70;49.10;;;;;;4994864;28;20664;-69
2023/07/09 05:14:39;;;;;;;7.60;6.87;;;25.70;49.10;;;;;;4995178;28;20243;-69
2023/07/09 05:17:06;;;;;;;6.70;6.10;;;25.70;49.10;;;;;;4993249;28;20620;-68
2023/07/09 05:19:32;;;;;;;6.53;6.00;;;25.70;49.10;;;;;;4994888;28;20181;-69
2023/07/09 05:21:57;;;;;;;7.30;6.70;;;25.70;49.10;;;;;;4994980;28;20412;-69
2023/07/09 05:24:23;;;;;;;7.67;6.87;;;25.70;49.10;;;;;;4994564;28;20183;-70
2023/07/09 05:26:49;;;;;;;7.93;6.90;;;25.70;49.10;;;;;;4994265;28;20255;-69
2023/07/09 05:29:14;;;;;;;6.40;5.80;;;25.70;49.10;;;;;;4994730;28;20284;-69
2023/07/09 05:31:41;;;;;;;7.90;7.07;;;25.70;49.10;;;;;;4994552;28;20251;-69
2023/07/09 05:34:07;;;;;;;10.80;7.10;;;25.70;49.10;;;;;;4994159;28;20192;-69
2023/07/09 05:36:33;;;;;;;7.93;7.13;;;25.70;49.10;;;;;;4994541;28;20412;-69
2023/07/09 05:38:58;;;;;;;7.13;6.43;;;25.70;49.20;;;;;;4994086;28;20419;-69
2023/07/09 05:41:24;;;;;;;7.63;6.93;;;25.70;49.20;;;;;;4994243;28;20229;-69
2023/07/09 05:43:52;;;;;;;8.67;7.10;;;25.70;49.20;;;;;;4994137;28;20184;-69
2023/07/09 05:46:18;;;;;;;7.70;6.90;;;25.80;49.30;;;;;;4994236;28;20416;-69
2023/07/09 05:48:44;;;;;;;7.77;6.93;;;25.70;49.20;;;;;;4993850;28;20571;-70
2023/07/09 05:51:10;;;;;;;8.00;7.30;;;25.70;49.20;;;;;;4994019;28;20542;-69
2023/07/09 05:53:35;;;;;;;8.13;7.43;;;25.70;49.20;;;;;;4992724;28;20243;-69
2023/07/09 05:56:01;;;;;;;7.90;7.20;;;25.80;49.30;;;;;;4993859;28;20177;-68
2023/07/09 05:58:27;;;;;;;7.37;6.57;;;25.80;49.30;;;;;;4993747;28;20197;-69
2023/07/09 06:00:55;;;;;;;7.10;6.40;;;25.80;49.30;;;;;;4993150;28;20195;-69
2023/07/09 06:03:22;;;;;;;7.53;6.60;;;25.70;49.80;;;;;;4993748;28;20169;-69
2023/07/09 06:05:49;;;;;;;8.20;7.40;;;25.80;49.30;;;;;;4994012;28;20416;-69
2023/07/09 06:08:16;;;;;;;8.67;6.93;;;25.70;49.30;;;;;;4993880;28;20446;-68
2023/07/09 06:10:58;;;;;;;7.63;6.90;;;25.80;49.40;;;;;;4993687;28;21039;-69
2023/07/09 06:13:25;;;;;;;8.50;7.60;;;25.80;49.30;;;;;;4993628;28;20406;-69
2023/07/09 06:15:52;;;;;;;8.27;7.47;;;25.80;49.30;;;;;;4993604;28;20503;-69
2023/07/09 06:18:19;;;;;;;8.17;7.47;;;25.80;49.40;;;;;;4993806;28;20519;-68
2023/07/09 06:20:49;;;;;;;7.73;7.07;;;25.80;49.40;;;;;;4993638;28;20420;-68
2023/07/09 06:23:15;;;;;;;7.87;7.13;;;25.80;49.40;;;;;;4993711;28;20412;-69
2023/07/09 06:25:42;;;;;;;7.50;6.67;;;25.80;49.40;;;;;;4994160;28;20443;-69
2023/07/09 06:28:08;;;;;;;7.03;6.43;;;25.80;49.40;;;;;;4993805;28;20486;-69
2023/07/09 06:30:34;;;;;;;7.90;7.20;;;25.80;49.40;;;;;;4994039;28;20479;-69
2023/07/09 06:32:59;;;;;;;7.67;6.97;;;25.80;49.50;;;;;;4993652;28;20196;-69
2023/07/09 06:35:25;;;;;;;8.80;6.80;;;25.80;49.50;;;;;;4993396;28;20296;-69
2023/07/09 06:37:50;;;;;;;8.43;7.20;;;25.80;49.50;;;;;;4993598;28;20195;-69
2023/07/09 06:40:16;;;;;;;8.10;7.40;;;25.80;49.50;;;;;;4993642;28;20188;-68
2023/07/09 06:42:42;;;;;;;8.40;7.03;;;25.80;49.50;;;;;;4993395;28;20546;-69
2023/07/09 06:45:08;;;;;;;7.47;6.70;;;25.80;49.50;;;;;;4993802;28;20204;-69
2023/07/09 06:47:33;;;;;;;7.00;6.40;;;25.80;49.50;;;;;;4993373;28;20216;-69
2023/07/09 06:49:59;;;;;;;7.80;7.00;;;25.80;49.50;;;;;;4993037;28;20181;-69
2023/07/09 06:52:24;;;;;;;8.20;7.30;;;25.80;49.50;;;;;;4992312;28;20169;-69
2023/07/09 06:54:50;;;;;;;7.77;6.33;;;25.80;49.50;;;;;;4993476;28;20537;-68
2023/07/09 06:57:15;;;;;;;7.17;6.40;;;25.80;49.50;;;;;;4993263;28;20214;-69
2023/07/09 06:59:41;;;;;;;7.27;6.60;;;25.80;49.50;;;;;;4993623;28;20284;-69
2023/07/09 07:02:08;;;;;;;7.20;6.50;;;25.80;49.50;;;;;;4993100;28;20224;-68
2023/07/09 07:04:33;;;;;;;7.20;6.53;;;25.80;49.50;;;;;;4993239;28;20553;-69
2023/07/09 07:06:59;;;;;;;7.50;6.80;;;25.80;49.50;;;;;;4992354;28;20431;-68
2023/07/09 07:09:25;;;;;;;7.13;6.43;;;25.80;49.50;;;;;;4992856;28;20180;-69
2023/07/09 07:11:50;;;;;;;6.83;6.23;;;25.80;49.50;;;;;;4993047;28;21046;-69
2023/07/09 07:14:16;;;;;;;7.17;6.57;;;25.80;49.50;;;;;;4996512;28;20255;-69
2023/07/09 07:16:42;;;;;;;7.70;7.00;;;25.80;49.50;;;;;;4996429;28;20705;-69
2023/07/09 07:19:09;;;;;;;6.73;6.17;;;25.80;49.50;;;;;;4996679;28;20672;-69
2023/07/09 07:21:35;;;;;;;6.70;5.80;;;25.80;49.50;;;;;;4996423;28;20173;-70
2023/07/09 07:24:00;;;;;;;7.03;6.27;;;25.80;49.50;;;;;;4996266;28;20474;-69
2023/07/09 07:26:26;;;;;;;7.07;6.40;;;25.80;49.50;;;;;;4996207;28;20173;-69
2023/07/09 07:28:52;;;;;;;6.43;5.83;;;25.90;49.60;;;;;;4996230;28;20177;-69
2023/07/09 07:31:18;;;;;;;6.60;6.00;;;25.90;49.60;;;;;;4996089;28;20192;-68
2023/07/09 07:33:43;;;;;;;6.50;5.90;;;25.90;50.10;;;;;;4996380;28;20462;-68
2023/07/09 07:36:10;;;;;;;6.37;5.77;;;25.80;49.50;;;;;;4996101;28;20603;-69
2023/07/09 07:38:35;;;;;;;7.10;6.50;;;25.90;49.60;;;;;;4996321;28;20686;-67
2023/07/09 07:41:01;;;;;;;7.10;6.40;;;25.90;49.60;;;;;;4995986;28;20444;-68
2023/07/09 07:43:27;;;;;;;6.43;5.83;;;25.80;49.50;;;;;;4995947;28;20173;-68
2023/07/09 07:45:53;;;;;;;7.03;6.33;;;25.90;49.60;;;;;;4995921;28;21020;-68
2023/07/09 07:48:19;;;;;;;6.20;5.70;;;25.90;49.60;;;;;;4994544;28;20583;-68
2023/07/09 07:50:46;;;;;;;7.17;6.57;;;25.90;49.60;;;;;;4995771;28;20283;-67
2023/07/09 07:53:13;;;;;;;6.57;5.87;;;25.90;49.60;;;;;;4995872;28;20264;-69
2023/07/09 07:55:39;;;;;;;7.17;6.57;;;25.90;49.60;;;;;;4996023;28;20460;-67
2023/07/09 07:58:04;;;;;;;6.50;5.90;;;25.90;49.70;;;;;;4995720;28;20515;-68
2023/07/09 08:00:31;;;;;;;7.67;6.63;;;25.90;49.70;;;;;;4995277;28;20255;-69
2023/07/09 08:02:56;;;;;;;6.63;6.00;;;25.90;49.70;;;;;;4995747;28;20176;-70
2023/07/09 08:05:23;;;;;;;6.90;6.30;;;25.90;49.70;;;;;;4995686;28;20416;-69
2023/07/09 08:07:49;;;;;;;7.07;6.47;;;25.90;49.70;;;;;;4995572;28;20184;-69
2023/07/09 08:10:15;;;;;;;6.57;5.97;;;25.90;49.70;;;;;;4995617;28;20452;-68
2023/07/09 08:12:41;;;;;;;6.50;5.90;;;25.90;49.70;;;;;;4995525;28;20176;-69
2023/07/09 08:15:07;;;;;;;7.30;6.60;;;25.90;49.70;;;;;;4995196;28;20413;-69
2023/07/09 08:17:33;;;;;;;6.33;5.73;;;25.90;49.70;;;;;;4994101;28;20200;-69
2023/07/09 08:19:58;;;;;;;7.07;6.47;;;25.90;49.80;;;;;;4995335;28;20783;-69
2023/07/09 08:22:24;;;;;;;6.50;5.63;;;25.90;49.80;;;;;;4995049;28;20196;-69
2023/07/09 08:24:50;;;;;;;6.37;5.77;;;25.90;49.80;;;;;;4993249;28;20184;-69
2023/07/09 08:27:16;;;;;;;6.20;5.60;;;25.90;49.80;;;;;;4995128;28;20200;-68
2023/07/09 08:29:42;;;;;;;6.83;6.13;;;25.90;49.80;;;;;;4995146;28;20196;-69
2023/07/09 08:32:08;;;;;;;7.30;5.77;;;25.90;49.80;;;;;;4995320;28;20196;-69
2023/07/09 08:34:35;;;;;;;6.60;5.90;;;25.90;49.80;;;;;;4994922;28;20408;-69
2023/07/09 08:37:01;;;;;;;7.37;6.67;;;25.90;49.80;;;;;;4995393;28;20436;-69
2023/07/09 08:39:26;;;;;;;7.30;6.40;;;25.90;49.80;;;;;;4994909;28;20404;-69
2023/07/09 08:42:03;;;;;;;6.67;5.93;;;25.90;49.90;;;;;;4994059;28;20412;-69
2023/07/09 08:44:29;;;;;;;6.43;5.90;;;25.90;49.90;;;;;;4994910;28;20165;-69
2023/07/09 08:47:06;;;;;;;6.37;5.87;;;25.90;49.90;;;;;;4994975;28;20459;-69
2023/07/09 08:49:59;;;;;;;7.00;6.40;;;25.90;50.50;;;;;;4994555;28;20169;-69
2023/07/09 08:52:31;;;;;;;6.93;6.27;;;26.00;50.00;;;;;;4994701;28;20431;-69
2023/07/09 08:55:01;;;;;;;6.97;6.27;;;25.90;50.00;;;;;;4994609;28;20392;-69
2023/07/09 08:57:33;;;;;;;6.77;6.07;;;25.90;50.00;;;;;;4994548;28;20462;-69
2023/07/09 09:00:12;;;;;;;6.90;6.20;;;25.90;50.10;;;;;;4994721;28;20905;-69
2023/07/09 09:02:52;;;;;;;7.40;6.70;;;26.00;50.10;;;;;;4994500;28;20985;-69
2023/07/09 09:05:21;;;;;;;9.67;6.73;;;26.00;50.20;;;;;;4994007;28;20483;-69
2023/07/09 09:07:54;;;;;;;6.40;5.80;;;26.00;50.20;;;;;;4994142;28;20948;-69
2023/07/09 09:10:40;;;;;;;8.37;6.73;;;26.00;50.80;;;;;;4994361;28;20448;-70
2023/07/09 09:13:12;;;;;;;7.00;5.97;;;26.00;50.20;;;;;;4994360;28;20481;-70
2023/07/09 09:15:42;;;;;;;7.10;6.00;;;26.00;50.20;;;;;;4994279;28;20415;-70
2023/07/09 09:18:25;;;;;;;7.13;6.47;;;26.00;50.20;;;;;;4994359;28;20440;-70
2023/07/09 09:21:09;;;;;;;6.97;6.27;;;26.00;50.30;;;;;;4994243;28;20894;-70
2023/07/09 09:23:46;;;;;;;6.60;5.70;;;26.00;50.20;;;;;;4994132;28;20416;-70
2023/07/09 09:26:22;;;;;;;6.67;6.10;;;26.00;50.30;;;;;;4994056;28;20447;-69
2023/07/09 09:28:48;;;;;;;6.90;6.00;;;26.00;50.30;;;;;;4993920;28;20420;-69
2023/07/09 09:31:15;;;;;;;5.90;5.27;;;26.00;50.30;;;;;;4993843;28;20522;-69
2023/07/09 09:33:46;;;;;;;6.83;6.10;;;26.00;50.30;;;;;;4993880;28;20180;-69
2023/07/09 09:36:17;;;;;;;6.77;6.17;;;26.00;50.30;;;;;;4993881;28;20761;-69
2023/07/09 09:38:43;;;;;;;6.63;4.97;;;26.00;50.30;;;;;;4993979;28;20432;-69
2023/07/09 09:41:18;;;;;;;6.83;6.23;;;26.00;50.30;;;;;;4993975;28;20801;-70
2023/07/09 09:43:45;;;;;;;6.60;5.90;;;26.00;50.30;;;;;;4993850;28;20786;-69
2023/07/09 09:46:18;;;;;;;6.80;5.50;;;26.00;50.30;;;;;;4993897;28;20766;-69
2023/07/09 09:48:46;;;;;;;7.00;5.80;;;26.00;50.30;;;;;;4993569;28;20515;-69
2023/07/09 09:51:13;;;;;;;7.10;6.30;;;26.00;50.30;;;;;;4993613;28;20456;-69
2023/07/09 09:53:44;;;;;;;7.23;6.53;;;26.00;50.30;;;;;;4993727;28;20412;-69
2023/07/09 09:56:18;;;;;;;5.87;5.30;;;26.00;50.30;;;;;;4993441;28;20393;-69
2023/07/09 09:58:44;;;;;;;6.40;5.80;;;26.00;50.30;;;;;;4993421;28;20575;-69
2023/07/09 10:01:18;;;;;;;6.53;5.93;;;26.00;50.30;;;;;;4993253;28;20523;-68
2023/07/09 10:03:48;;;;;;;6.03;5.43;;;26.00;50.30;;;;;;4993419;28;20422;-70
2023/07/09 10:06:20;;;;;;;7.07;6.37;;;26.00;50.30;;;;;;4993361;28;20423;-69
2023/07/09 10:09:02;;;;;;;6.63;5.40;;;26.00;50.30;;;;;;4992288;28;20502;-69
2023/07/09 10:11:48;;;;;;;6.53;5.90;;;26.10;50.40;;;;;;4991840;28;20459;-70
2023/07/09 10:14:44;;;;;;;6.27;5.67;;;26.10;50.40;;;;;;4993278;28;20412;-69
2023/07/09 10:17:30;;;;;;;5.50;5.00;;;26.10;50.40;;;;;;4993135;28;20428;-70
2023/07/09 10:20:20;;;;;;;7.10;6.07;;;26.00;50.30;;;;;;4993238;28;20814;-72
2023/07/09 10:23:02;;;;;;;5.90;5.30;;;26.10;50.40;;;;;;4993403;28;20407;-69
2023/07/09 10:25:54;;;;;;;5.70;5.20;;;26.10;50.40;;;;;;4993637;28;20729;-69
2023/07/09 10:28:54;;;;;;;5.10;4.70;;;26.10;50.40;;;;;;4990145;28;20440;-70
2023/07/09 10:31:39;;;;;;;6.33;5.73;;;26.00;50.40;;;;;;4992845;28;20502;-69
2023/07/09 10:34:33;;;;;;;6.70;5.53;;;26.00;50.40;;;;;;4992985;28;20451;-69
2023/07/09 10:37:21;;;;;;;5.60;5.10;;;26.00;50.40;;;;;;4990624;28;20466;-69
2023/07/09 10:39:53;;;;;;;6.10;5.50;;;26.00;50.40;;;;;;4992893;28;20393;-69
2023/07/09 10:42:27;;;;;;;5.53;5.13;;;26.00;50.40;;;;;;4992855;28;20408;-69
2023/07/09 10:45:18;;;;;;;6.27;5.77;;;26.10;50.40;;;;;;4992835;28;20961;-69
2023/07/09 10:47:48;;;;;;;6.03;5.43;;;26.10;50.50;;;;;;4992573;28;20455;-69
2023/07/09 10:50:31;;;;;;;5.53;5.03;;;26.00;50.40;;;;;;4992634;28;20497;-69
2023/07/09 10:53:24;;;;;;;5.67;5.17;;;26.10;50.40;;;;;;4992870;28;20756;-70
2023/07/09 10:55:56;;;;;;;5.37;4.87;;;26.10;50.40;;;;;;4992692;28;20777;-70
2023/07/09 10:58:49;;;;;;;6.00;5.40;;;26.10;50.40;;;;;;4992556;28;20523;-69
2023/07/09 11:01:15;;;;;;;4.57;4.17;;;26.10;50.40;;;;;;4991186;28;20969;-69
2023/07/09 11:03:58;;;;;;;5.20;4.70;;;26.00;50.40;;;;;;4992554;28;20415;-70
2023/07/09 11:06:35;;;;;;;5.73;5.13;;;26.10;50.50;;;;;;4992469;28;20395;-70
2023/07/09 11:09:04;;;;;;;5.97;5.00;;;26.10;50.50;;;;;;4992846;28;20818;-69
2023/07/09 11:11:34;;;;;;;5.40;4.90;;;26.10;50.40;;;;;;4992457;28;20478;-70
2023/07/09 11:14:05;;;;;;;5.43;4.93;;;26.10;50.40;;;;;;4992446;28;20480;-69
2023/07/09 11:16:38;;;;;;;5.20;4.70;;;26.10;50.50;;;;;;4992658;28;20805;-69
2023/07/09 11:19:06;;;;;;;5.37;4.87;;;26.10;50.50;;;;;;4992727;28;20400;-70
2023/07/09 11:21:32;;;;;;;5.50;4.93;;;26.10;50.50;;;;;;4992378;28;20412;-70
2023/07/09 11:24:00;;;;;;;6.47;5.17;;;26.10;50.40;;;;;;4992331;28;20411;-70
2023/07/09 11:26:28;;;;;;;5.63;5.13;;;26.10;50.40;;;;;;4991040;28;20352;-69
2023/07/09 11:29:16;;;;;;;5.80;5.20;;;26.10;50.40;;;;;;4992620;28;20420;-69
2023/07/09 11:31:48;;;;;;;6.30;5.07;;;26.10;50.40;;;;;;4992305;28;20448;-69
2023/07/09 11:34:14;;;;;;;5.53;4.93;;;26.10;50.40;;;;;;4992361;28;20409;-70
2023/07/09 11:37:11;;;;;;;5.07;4.57;;;26.10;50.40;;;;;;4992514;28;20404;-68
2023/07/09 11:39:36;;;;;;;5.50;5.00;;;26.10;50.40;;;;;;4991450;28;20215;-68
2023/07/09 11:42:02;;;;;;;5.80;4.80;;;26.10;50.40;;;;;;4992273;28;20438;-70
2023/07/09 11:44:31;;;;;;;5.67;4.90;;;26.10;50.40;;;;;;4991249;28;20662;-69
2023/07/09 11:47:30;;;;;;;5.70;5.20;;;26.10;50.50;;;;;;4992118;28;20440;-69
2023/07/09 11:50:02;;;;;;;6.07;4.87;;;26.10;50.40;;;;;;4992558;28;20844;-70
2023/07/09 11:52:33;;;;;;;5.73;5.13;;;26.10;50.50;;;;;;4992502;28;20412;-70
2023/07/09 11:55:20;;;;;;;5.67;5.17;;;26.10;50.50;;;;;;4992432;28;20400;-69
2023/07/09 11:57:53;;;;;;;5.20;4.70;;;26.10;50.50;;;;;;4992172;28;21013;-69
2023/07/09 12:00:19;;;;;;;6.00;5.00;;;26.10;50.50;;;;;;4995626;28;20415;-68
2023/07/09 12:02:44;;;;;;;5.00;4.50;;;26.10;50.50;;;;;;4995737;28;20400;-68
2023/07/09 12:05:10;;;;;;;5.00;4.60;;;26.10;50.50;;;;;;4995649;28;20651;-68
2023/07/09 12:07:36;;;;;;;5.33;4.80;;;26.10;50.50;;;;;;4995477;28;20204;-68
2023/07/09 12:10:14;;;;;;;4.77;4.27;;;26.10;50.50;;;;;;4995739;28;20457;-69
2023/07/09 12:12:42;;;;;;;5.37;4.87;;;26.10;50.50;;;;;;4995723;28;20196;-70
2023/07/09 12:15:19;;;;;;;5.00;4.60;;;26.10;50.50;;;;;;4995578;28;20450;-68
2023/07/09 12:17:53;;;;;;;5.10;4.60;;;26.10;50.50;;;;;;4995620;28;20435;-69
2023/07/09 12:20:19;;;;;;;4.77;4.27;;;26.10;50.50;;;;;;4995423;28;20389;-69
2023/07/09 12:22:44;;;;;;;5.67;5.17;;;26.10;50.50;;;;;;4995451;28;20419;-69
2023/07/09 12:25:22;;;;;;;5.23;4.73;;;26.10;50.50;;;;;;4995313;28;20653;-69
2023/07/09 12:27:47;;;;;;;5.40;3.93;;;26.20;50.50;;;;;;4994069;28;20237;-70
2023/07/09 12:30:13;;;;;;;4.93;4.43;;;26.10;50.50;;;;;;4995451;28;20412;-69
2023/07/09 12:32:49;;;;;;;5.90;4.90;;;26.10;50.50;;;;;;4995767;28;20256;-69
2023/07/09 12:35:15;;;;;;;5.00;4.50;;;26.20;50.50;;;;;;4995645;28;20411;-68
2023/07/09 12:37:44;;;;;;;6.67;4.57;;;26.20;50.60;;;;;;4995042;28;20929;-69
2023/07/09 12:40:30;;;;;;;5.47;4.97;;;26.10;50.50;;;;;;4995524;28;20420;-69
2023/07/09 12:42:57;;;;;;;4.77;4.37;;;26.10;50.50;;;;;;4994957;28;20540;-69
2023/07/09 12:45:23;;;;;;;4.60;4.20;;;26.20;50.50;;;;;;4995306;28;20409;-70
2023/07/09 12:47:50;;;;;;;4.67;4.27;;;26.10;50.50;;;;;;4994961;28;20420;-68
2023/07/09 12:50:31;;;;;;;5.17;4.67;;;26.20;50.50;;;;;;4995012;28;20412;-69
2023/07/09 12:53:02;;;;;;;4.80;4.40;;;26.10;50.50;;;;;;4994859;28;20446;-69
2023/07/09 12:55:36;;;;;;;4.63;4.23;;;26.20;50.60;;;;;;4993419;28;20495;-68
2023/07/09 12:58:02;;;;;;;5.73;4.23;;;26.20;50.50;;;;;;4994669;28;20462;-69